sensor_id;sensor_type;location;lat;lon;timestamp;temperature;humidity
71128;SHT30;59249;59.736;30.568;2023-04-08T00:00:16;1.32;72.45
71128;SHT30;59249;59.736;30.568;2023-04-08T00:02:50;1.32;73.33
71128;SHT30;59249;59.736;30.568;2023-04-08T00:05:19;1.20;73.64
71128;SHT30;59249;59.736;30.568;2023-04-08T00:07:48;1.26;73.21
71128;SHT30;59249;59.736;30.568;2023-04-08T00:10:19;1.19;73.98
71128;SHT30;59249;59.736;30.568;2023-04-08T00:12:48;1.19;74.15
71128;SHT30;59249;59.736;30.568;2023-04-08T00:15:47;1.23;74.00
71128;SHT30;59249;59.736;30.568;2023-04-08T00:18:18;1.27;74.52
71128;SHT30;59249;59.736;30.568;2023-04-08T00:20:47;1.18;74.40
71128;SHT30;59249;59.736;30.568;2023-04-08T00:23:17;1.12;74.47
71128;SHT30;59249;59.736;30.568;2023-04-08T00:25:49;1.17;74.26
71128;SHT30;59249;59.736;30.568;2023-04-08T00:28:18;1.12;74.52
71128;SHT30;59249;59.736;30.568;2023-04-08T00:30:49;1.01;74.47
71128;SHT30;59249;59.736;30.568;2023-04-08T00:33:18;1.03;74.80
71128;SHT30;59249;59.736;30.568;2023-04-08T00:35:49;1.07;74.74
71128;SHT30;59249;59.736;30.568;2023-04-08T00:38:17;1.11;74.47
71128;SHT30;59249;59.736;30.568;2023-04-08T00:40:55;1.16;74.23
71128;SHT30;59249;59.736;30.568;2023-04-08T00:43:26;1.08;74.00
71128;SHT30;59249;59.736;30.568;2023-04-08T00:45:57;1.16;73.89
71128;SHT30;59249;59.736;30.568;2023-04-08T00:48:26;1.07;74.47
71128;SHT30;59249;59.736;30.568;2023-04-08T00:50:55;0.98;74.40
71128;SHT30;59249;59.736;30.568;2023-04-08T00:53:23;0.99;74.86
71128;SHT30;59249;59.736;30.568;2023-04-08T00:55:52;1.01;74.40
71128;SHT30;59249;59.736;30.568;2023-04-08T00:58:21;0.91;74.33
71128;SHT30;59249;59.736;30.568;2023-04-08T01:00:59;0.90;75.02
71128;SHT30;59249;59.736;30.568;2023-04-08T01:03:43;0.97;74.73
71128;SHT30;59249;59.736;30.568;2023-04-08T01:06:21;0.84;74.96
71128;SHT30;59249;59.736;30.568;2023-04-08T01:08:53;0.75;74.74
71128;SHT30;59249;59.736;30.568;2023-04-08T01:11:26;0.72;75.94
71128;SHT30;59249;59.736;30.568;2023-04-08T01:14:06;0.73;76.28
71128;SHT30;59249;59.736;30.568;2023-04-08T01:16:41;0.76;76.05
71128;SHT30;59249;59.736;30.568;2023-04-08T01:19:21;0.83;76.23
71128;SHT30;59249;59.736;30.568;2023-04-08T01:22:02;0.81;76.35
71128;SHT30;59249;59.736;30.568;2023-04-08T01:24:38;0.79;75.63
71128;SHT30;59249;59.736;30.568;2023-04-08T01:27:13;0.70;75.79
71128;SHT30;59249;59.736;30.568;2023-04-08T01:29:44;0.66;75.78
71128;SHT30;59249;59.736;30.568;2023-04-08T01:32:18;0.66;76.09
71128;SHT30;59249;59.736;30.568;2023-04-08T01:34:49;0.77;75.88
71128;SHT30;59249;59.736;30.568;2023-04-08T01:37:24;0.66;75.71
71128;SHT30;59249;59.736;30.568;2023-04-08T01:39:56;0.64;75.72
71128;SHT30;59249;59.736;30.568;2023-04-08T01:42:28;0.65;76.23
71128;SHT30;59249;59.736;30.568;2023-04-08T01:44:58;0.56;75.94
71128;SHT30;59249;59.736;30.568;2023-04-08T01:47:31;0.60;76.41
71128;SHT30;59249;59.736;30.568;2023-04-08T01:50:01;0.61;76.04
71128;SHT30;59249;59.736;30.568;2023-04-08T01:52:34;0.60;76.77
71128;SHT30;59249;59.736;30.568;2023-04-08T01:55:08;0.63;77.03
71128;SHT30;59249;59.736;30.568;2023-04-08T01:57:43;0.63;77.17
71128;SHT30;59249;59.736;30.568;2023-04-08T02:00:19;0.57;76.67
71128;SHT30;59249;59.736;30.568;2023-04-08T02:02:52;0.62;77.33
71128;SHT30;59249;59.736;30.568;2023-04-08T02:05:22;0.59;77.04
71128;SHT30;59249;59.736;30.568;2023-04-08T02:07:53;0.55;76.95
71128;SHT30;59249;59.736;30.568;2023-04-08T02:10:22;0.59;77.26
71128;SHT30;59249;59.736;30.568;2023-04-08T02:12:55;0.53;76.87
71128;SHT30;59249;59.736;30.568;2023-04-08T02:15:27;0.45;77.70
71128;SHT30;59249;59.736;30.568;2023-04-08T02:18:06;0.37;78.30
71128;SHT30;59249;59.736;30.568;2023-04-08T02:20:43;0.41;77.65
71128;SHT30;59249;59.736;30.568;2023-04-08T02:23:18;0.37;77.17
71128;SHT30;59249;59.736;30.568;2023-04-08T02:25:54;0.37;78.04
71128;SHT30;59249;59.736;30.568;2023-04-08T02:28:42;0.38;78.05
71128;SHT30;59249;59.736;30.568;2023-04-08T02:31:12;0.43;78.45
71128;SHT30;59249;59.736;30.568;2023-04-08T02:33:45;0.41;78.33
71128;SHT30;59249;59.736;30.568;2023-04-08T02:36:16;0.49;78.09
71128;SHT30;59249;59.736;30.568;2023-04-08T02:38:48;0.41;78.42
71128;SHT30;59249;59.736;30.568;2023-04-08T02:41:19;0.34;77.90
71128;SHT30;59249;59.736;30.568;2023-04-08T02:43:50;0.31;78.59
71128;SHT30;59249;59.736;30.568;2023-04-08T02:46:22;0.39;78.50
71128;SHT30;59249;59.736;30.568;2023-04-08T02:48:52;0.33;78.43
71128;SHT30;59249;59.736;30.568;2023-04-08T02:51:24;0.36;78.63
71128;SHT30;59249;59.736;30.568;2023-04-08T02:53:52;0.50;78.49
71128;SHT30;59249;59.736;30.568;2023-04-08T02:56:25;0.49;78.30
71128;SHT30;59249;59.736;30.568;2023-04-08T02:58:56;0.50;78.04
71128;SHT30;59249;59.736;30.568;2023-04-08T03:01:29;0.41;77.97
71128;SHT30;59249;59.736;30.568;2023-04-08T03:04:01;0.35;78.17
71128;SHT30;59249;59.736;30.568;2023-04-08T03:06:33;0.25;77.94
71128;SHT30;59249;59.736;30.568;2023-04-08T03:09:03;0.26;78.41
71128;SHT30;59249;59.736;30.568;2023-04-08T03:11:37;0.15;78.36
71128;SHT30;59249;59.736;30.568;2023-04-08T03:14:08;0.15;78.54
71128;SHT30;59249;59.736;30.568;2023-04-08T03:16:38;0.13;78.70
71128;SHT30;59249;59.736;30.568;2023-04-08T03:19:07;0.05;79.10
71128;SHT30;59249;59.736;30.568;2023-04-08T03:21:36;0.08;78.79
71128;SHT30;59249;59.736;30.568;2023-04-08T03:24:04;0.18;78.98
71128;SHT30;59249;59.736;30.568;2023-04-08T03:26:33;0.23;78.92
71128;SHT30;59249;59.736;30.568;2023-04-08T03:29:02;0.19;78.92
71128;SHT30;59249;59.736;30.568;2023-04-08T03:31:32;0.18;79.04
71128;SHT30;59249;59.736;30.568;2023-04-08T03:34:01;0.36;78.88
71128;SHT30;59249;59.736;30.568;2023-04-08T03:36:30;0.32;78.74
71128;SHT30;59249;59.736;30.568;2023-04-08T03:38:58;0.40;78.71
71128;SHT30;59249;59.736;30.568;2023-04-08T03:41:27;0.48;78.60
71128;SHT30;59249;59.736;30.568;2023-04-08T03:43:56;0.48;78.32
71128;SHT30;59249;59.736;30.568;2023-04-08T03:46:25;0.57;77.78
71128;SHT30;59249;59.736;30.568;2023-04-08T03:48:55;0.70;77.97
71128;SHT30;59249;59.736;30.568;2023-04-08T03:51:24;0.77;78.09
71128;SHT30;59249;59.736;30.568;2023-04-08T03:53:53;0.81;77.87
71128;SHT30;59249;59.736;30.568;2023-04-08T03:56:22;0.82;77.52
71128;SHT30;59249;59.736;30.568;2023-04-08T03:58:51;0.93;77.51
71128;SHT30;59249;59.736;30.568;2023-04-08T04:01:19;0.99;77.33
71128;SHT30;59249;59.736;30.568;2023-04-08T04:03:48;0.98;77.18
71128;SHT30;59249;59.736;30.568;2023-04-08T04:06:19;1.00;77.24
71128;SHT30;59249;59.736;30.568;2023-04-08T04:08:47;1.07;77.10
71128;SHT30;59249;59.736;30.568;2023-04-08T04:11:17;1.08;77.10
71128;SHT30;59249;59.736;30.568;2023-04-08T04:13:46;1.19;76.84
71128;SHT30;59249;59.736;30.568;2023-04-08T04:16:16;1.19;76.67
71128;SHT30;59249;59.736;30.568;2023-04-08T04:18:47;1.27;76.47
71128;SHT30;59249;59.736;30.568;2023-04-08T04:21:20;1.30;76.75
71128;SHT30;59249;59.736;30.568;2023-04-08T04:23:52;1.26;76.81
71128;SHT30;59249;59.736;30.568;2023-04-08T04:26:31;1.30;76.57
71128;SHT30;59249;59.736;30.568;2023-04-08T04:29:01;1.38;76.28
71128;SHT30;59249;59.736;30.568;2023-04-08T04:31:31;1.34;75.86
71128;SHT30;59249;59.736;30.568;2023-04-08T04:34:01;1.51;75.83
71128;SHT30;59249;59.736;30.568;2023-04-08T04:36:31;1.36;75.86
71128;SHT30;59249;59.736;30.568;2023-04-08T04:39:00;1.60;75.62
71128;SHT30;59249;59.736;30.568;2023-04-08T04:41:30;1.69;75.39
71128;SHT30;59249;59.736;30.568;2023-04-08T04:43:58;1.74;75.16
71128;SHT30;59249;59.736;30.568;2023-04-08T04:46:27;1.87;75.16
71128;SHT30;59249;59.736;30.568;2023-04-08T04:49:03;1.95;74.88
71128;SHT30;59249;59.736;30.568;2023-04-08T04:51:41;2.02;74.94
71128;SHT30;59249;59.736;30.568;2023-04-08T04:54:10;2.12;74.71
71128;SHT30;59249;59.736;30.568;2023-04-08T04:56:39;2.27;74.78
71128;SHT30;59249;59.736;30.568;2023-04-08T04:59:07;2.35;74.39
71128;SHT30;59249;59.736;30.568;2023-04-08T05:01:36;2.40;73.95
71128;SHT30;59249;59.736;30.568;2023-04-08T05:04:07;2.41;73.61
71128;SHT30;59249;59.736;30.568;2023-04-08T05:06:36;2.53;73.63
71128;SHT30;59249;59.736;30.568;2023-04-08T05:09:06;2.57;73.32
71128;SHT30;59249;59.736;30.568;2023-04-08T05:11:34;2.71;73.14
71128;SHT30;59249;59.736;30.568;2023-04-08T05:14:03;2.77;72.84
71128;SHT30;59249;59.736;30.568;2023-04-08T05:16:31;2.97;72.53
71128;SHT30;59249;59.736;30.568;2023-04-08T05:19:02;2.96;72.05
71128;SHT30;59249;59.736;30.568;2023-04-08T05:21:31;3.08;71.73
71128;SHT30;59249;59.736;30.568;2023-04-08T05:24:00;3.16;71.82
71128;SHT30;59249;59.736;30.568;2023-04-08T05:26:31;3.27;71.67
71128;SHT30;59249;59.736;30.568;2023-04-08T05:29:02;3.27;71.37
71128;SHT30;59249;59.736;30.568;2023-04-08T05:31:30;3.35;71.45
71128;SHT30;59249;59.736;30.568;2023-04-08T05:33:59;3.53;71.04
71128;SHT30;59249;59.736;30.568;2023-04-08T05:36:28;3.60;70.25
71128;SHT30;59249;59.736;30.568;2023-04-08T05:38:59;3.69;70.12
71128;SHT30;59249;59.736;30.568;2023-04-08T05:41:31;3.70;69.99
71128;SHT30;59249;59.736;30.568;2023-04-08T05:44:05;3.81;69.32
71128;SHT30;59249;59.736;30.568;2023-04-08T05:46:39;3.88;68.73
71128;SHT30;59249;59.736;30.568;2023-04-08T05:49:09;3.86;67.68
71128;SHT30;59249;59.736;30.568;2023-04-08T05:51:40;3.93;67.49
71128;SHT30;59249;59.736;30.568;2023-04-08T05:54:08;3.86;67.08
71128;SHT30;59249;59.736;30.568;2023-04-08T05:56:38;3.94;67.26
71128;SHT30;59249;59.736;30.568;2023-04-08T05:59:07;3.97;67.11
71128;SHT30;59249;59.736;30.568;2023-04-08T06:01:35;3.93;67.21
71128;SHT30;59249;59.736;30.568;2023-04-08T06:04:04;3.99;66.66
71128;SHT30;59249;59.736;30.568;2023-04-08T06:06:33;4.22;66.05
71128;SHT30;59249;59.736;30.568;2023-04-08T06:09:02;4.24;65.93
71128;SHT30;59249;59.736;30.568;2023-04-08T06:11:31;4.28;65.56
71128;SHT30;59249;59.736;30.568;2023-04-08T06:14:01;4.32;65.50
71128;SHT30;59249;59.736;30.568;2023-04-08T06:16:29;4.33;65.09
71128;SHT30;59249;59.736;30.568;2023-04-08T06:18:58;4.31;64.83
71128;SHT30;59249;59.736;30.568;2023-04-08T06:21:27;4.45;64.47
71128;SHT30;59249;59.736;30.568;2023-04-08T06:23:56;4.47;64.11
71128;SHT30;59249;59.736;30.568;2023-04-08T06:26:24;4.51;64.13
71128;SHT30;59249;59.736;30.568;2023-04-08T06:28:54;4.58;63.98
71128;SHT30;59249;59.736;30.568;2023-04-08T06:31:24;4.62;63.90
71128;SHT30;59249;59.736;30.568;2023-04-08T06:33:52;4.72;63.89
71128;SHT30;59249;59.736;30.568;2023-04-08T06:36:22;4.72;63.55
71128;SHT30;59249;59.736;30.568;2023-04-08T06:38:50;4.97;63.19
71128;SHT30;59249;59.736;30.568;2023-04-08T06:41:19;4.93;63.33
71128;SHT30;59249;59.736;30.568;2023-04-08T06:43:49;5.00;63.23
71128;SHT30;59249;59.736;30.568;2023-04-08T06:46:17;5.12;63.32
71128;SHT30;59249;59.736;30.568;2023-04-08T06:48:48;5.27;63.05
71128;SHT30;59249;59.736;30.568;2023-04-08T06:51:20;5.27;62.81
71128;SHT30;59249;59.736;30.568;2023-04-08T06:53:49;5.47;62.31
71128;SHT30;59249;59.736;30.568;2023-04-08T06:56:18;5.31;62.58
71128;SHT30;59249;59.736;30.568;2023-04-08T06:58:47;5.46;61.84
71128;SHT30;59249;59.736;30.568;2023-04-08T07:01:16;5.52;61.79
71128;SHT30;59249;59.736;30.568;2023-04-08T07:03:45;5.60;61.86
71128;SHT30;59249;59.736;30.568;2023-04-08T07:06:15;5.58;61.63
71128;SHT30;59249;59.736;30.568;2023-04-08T07:08:44;5.70;61.06
71128;SHT30;59249;59.736;30.568;2023-04-08T07:11:13;5.92;60.95
71128;SHT30;59249;59.736;30.568;2023-04-08T07:14:32;5.95;60.57
71128;SHT30;59249;59.736;30.568;2023-04-08T07:17:01;6.01;60.88
71128;SHT30;59249;59.736;30.568;2023-04-08T07:19:29;6.15;60.75
71128;SHT30;59249;59.736;30.568;2023-04-08T07:21:59;6.21;60.68
71128;SHT30;59249;59.736;30.568;2023-04-08T07:24:28;6.26;60.31
71128;SHT30;59249;59.736;30.568;2023-04-08T07:26:57;6.30;60.40
71128;SHT30;59249;59.736;30.568;2023-04-08T07:29:26;6.51;60.65
71128;SHT30;59249;59.736;30.568;2023-04-08T07:31:54;6.62;60.58
71128;SHT30;59249;59.736;30.568;2023-04-08T07:34:23;6.73;60.65
71128;SHT30;59249;59.736;30.568;2023-04-08T07:36:52;6.83;60.32
71128;SHT30;59249;59.736;30.568;2023-04-08T07:39:22;6.94;60.02
71128;SHT30;59249;59.736;30.568;2023-04-08T07:41:50;6.99;59.35
71128;SHT30;59249;59.736;30.568;2023-04-08T07:44:19;7.14;58.92
71128;SHT30;59249;59.736;30.568;2023-04-08T07:46:48;7.16;59.24
71128;SHT30;59249;59.736;30.568;2023-04-08T07:49:18;7.24;59.27
71128;SHT30;59249;59.736;30.568;2023-04-08T07:51:46;7.29;58.85
71128;SHT30;59249;59.736;30.568;2023-04-08T07:54:15;7.34;58.95
71128;SHT30;59249;59.736;30.568;2023-04-08T07:56:45;7.43;58.87
71128;SHT30;59249;59.736;30.568;2023-04-08T07:59:14;7.51;59.19
71128;SHT30;59249;59.736;30.568;2023-04-08T08:01:43;7.65;58.79
71128;SHT30;59249;59.736;30.568;2023-04-08T08:04:13;7.76;58.43
71128;SHT30;59249;59.736;30.568;2023-04-08T08:06:41;7.86;58.35
71128;SHT30;59249;59.736;30.568;2023-04-08T08:09:12;7.86;57.78
71128;SHT30;59249;59.736;30.568;2023-04-08T08:11:40;7.95;58.03
71128;SHT30;59249;59.736;30.568;2023-04-08T08:14:10;8.05;57.92
71128;SHT30;59249;59.736;30.568;2023-04-08T08:16:40;8.14;57.53
71128;SHT30;59249;59.736;30.568;2023-04-08T08:19:09;8.21;57.27
71128;SHT30;59249;59.736;30.568;2023-04-08T08:21:38;8.30;57.33
71128;SHT30;59249;59.736;30.568;2023-04-08T08:24:07;8.35;57.05
71128;SHT30;59249;59.736;30.568;2023-04-08T08:26:36;8.49;56.78
71128;SHT30;59249;59.736;30.568;2023-04-08T08:29:05;8.55;56.16
71128;SHT30;59249;59.736;30.568;2023-04-08T08:31:36;8.66;56.30
71128;SHT30;59249;59.736;30.568;2023-04-08T08:34:05;8.76;55.74
71128;SHT30;59249;59.736;30.568;2023-04-08T08:36:34;8.83;54.66
71128;SHT30;59249;59.736;30.568;2023-04-08T08:39:02;8.93;54.42
71128;SHT30;59249;59.736;30.568;2023-04-08T08:41:34;8.99;54.65
71128;SHT30;59249;59.736;30.568;2023-04-08T08:44:05;9.03;54.97
71128;SHT30;59249;59.736;30.568;2023-04-08T08:46:35;9.17;55.08
71128;SHT30;59249;59.736;30.568;2023-04-08T08:49:04;9.25;53.89
71128;SHT30;59249;59.736;30.568;2023-04-08T08:51:33;9.19;53.53
71128;SHT30;59249;59.736;30.568;2023-04-08T08:54:02;9.30;53.41
71128;SHT30;59249;59.736;30.568;2023-04-08T08:56:32;9.38;53.56
71128;SHT30;59249;59.736;30.568;2023-04-08T08:59:01;9.45;54.01
71128;SHT30;59249;59.736;30.568;2023-04-08T09:01:36;9.55;53.28
71128;SHT30;59249;59.736;30.568;2023-04-08T09:04:13;9.65;53.35
71128;SHT30;59249;59.736;30.568;2023-04-08T09:06:46;9.68;52.85
71128;SHT30;59249;59.736;30.568;2023-04-08T09:09:17;9.73;53.42
71128;SHT30;59249;59.736;30.568;2023-04-08T09:11:46;9.82;52.50
71128;SHT30;59249;59.736;30.568;2023-04-08T09:14:20;9.90;52.31
71128;SHT30;59249;59.736;30.568;2023-04-08T09:16:52;10.03;51.99
71128;SHT30;59249;59.736;30.568;2023-04-08T09:19:21;10.06;51.51
71128;SHT30;59249;59.736;30.568;2023-04-08T09:22:05;10.08;52.11
71128;SHT30;59249;59.736;30.568;2023-04-08T09:24:36;10.15;52.54
71128;SHT30;59249;59.736;30.568;2023-04-08T09:27:05;10.26;52.08
71128;SHT30;59249;59.736;30.568;2023-04-08T09:29:34;10.28;51.81
71128;SHT30;59249;59.736;30.568;2023-04-08T09:32:07;10.34;52.05
71128;SHT30;59249;59.736;30.568;2023-04-08T09:34:36;10.42;52.02
71128;SHT30;59249;59.736;30.568;2023-04-08T09:37:04;10.50;51.28
71128;SHT30;59249;59.736;30.568;2023-04-08T09:39:33;10.55;50.40
71128;SHT30;59249;59.736;30.568;2023-04-08T09:42:08;10.55;49.99
71128;SHT30;59249;59.736;30.568;2023-04-08T09:44:41;10.57;49.59
71128;SHT30;59249;59.736;30.568;2023-04-08T09:47:18;10.59;50.54
71128;SHT30;59249;59.736;30.568;2023-04-08T09:49:57;10.66;51.46
71128;SHT30;59249;59.736;30.568;2023-04-08T09:52:32;10.80;51.04
71128;SHT30;59249;59.736;30.568;2023-04-08T09:55:04;10.87;50.50
71128;SHT30;59249;59.736;30.568;2023-04-08T09:57:41;11.06;50.19
71128;SHT30;59249;59.736;30.568;2023-04-08T10:00:14;11.13;50.05
71128;SHT30;59249;59.736;30.568;2023-04-08T10:02:54;11.15;49.43
71128;SHT30;59249;59.736;30.568;2023-04-08T10:05:24;11.25;49.64
71128;SHT30;59249;59.736;30.568;2023-04-08T10:07:55;11.39;49.31
71128;SHT30;59249;59.736;30.568;2023-04-08T10:10:25;11.34;49.07
71128;SHT30;59249;59.736;30.568;2023-04-08T10:12:54;11.50;49.53
71128;SHT30;59249;59.736;30.568;2023-04-08T10:15:29;11.63;49.67
71128;SHT30;59249;59.736;30.568;2023-04-08T10:18:32;11.69;47.54
71128;SHT30;59249;59.736;30.568;2023-04-08T10:21:01;11.76;48.04
71128;SHT30;59249;59.736;30.568;2023-04-08T10:23:53;11.72;46.86
71128;SHT30;59249;59.736;30.568;2023-04-08T10:26:34;11.78;47.50
71128;SHT30;59249;59.736;30.568;2023-04-08T10:29:31;11.92;48.17
71128;SHT30;59249;59.736;30.568;2023-04-08T10:32:00;11.94;47.86
71128;SHT30;59249;59.736;30.568;2023-04-08T10:34:31;12.06;47.95
71128;SHT30;59249;59.736;30.568;2023-04-08T10:37:00;12.09;47.40
71128;SHT30;59249;59.736;30.568;2023-04-08T10:39:30;12.11;46.56
71128;SHT30;59249;59.736;30.568;2023-04-08T10:42:01;12.13;46.95
71128;SHT30;59249;59.736;30.568;2023-04-08T10:44:30;12.19;46.72
71128;SHT30;59249;59.736;30.568;2023-04-08T10:46:59;12.32;45.53
71128;SHT30;59249;59.736;30.568;2023-04-08T10:49:33;12.22;45.58
71128;SHT30;59249;59.736;30.568;2023-04-08T10:52:07;12.13;46.08
71128;SHT30;59249;59.736;30.568;2023-04-08T10:54:36;12.25;46.48
71128;SHT30;59249;59.736;30.568;2023-04-08T10:57:06;12.33;45.96
71128;SHT30;59249;59.736;30.568;2023-04-08T10:59:35;12.42;45.52
71128;SHT30;59249;59.736;30.568;2023-04-08T11:02:12;12.49;45.86
71128;SHT30;59249;59.736;30.568;2023-04-08T11:04:42;12.53;45.79
71128;SHT30;59249;59.736;30.568;2023-04-08T11:07:11;12.67;45.33
71128;SHT30;59249;59.736;30.568;2023-04-08T11:09:40;12.68;45.19
71128;SHT30;59249;59.736;30.568;2023-04-08T11:12:10;12.73;44.53
71128;SHT30;59249;59.736;30.568;2023-04-08T11:14:39;12.74;44.92
71128;SHT30;59249;59.736;30.568;2023-04-08T11:17:08;12.82;44.64
71128;SHT30;59249;59.736;30.568;2023-04-08T11:19:39;12.81;44.24
71128;SHT30;59249;59.736;30.568;2023-04-08T11:22:11;12.88;44.43
71128;SHT30;59249;59.736;30.568;2023-04-08T11:24:40;12.95;44.92
71128;SHT30;59249;59.736;30.568;2023-04-08T11:27:10;12.86;44.18
71128;SHT30;59249;59.736;30.568;2023-04-08T11:29:39;12.87;44.43
71128;SHT30;59249;59.736;30.568;2023-04-08T11:32:08;12.96;44.25
71128;SHT30;59249;59.736;30.568;2023-04-08T11:34:38;13.03;44.15
71128;SHT30;59249;59.736;30.568;2023-04-08T11:37:09;13.14;44.46
71128;SHT30;59249;59.736;30.568;2023-04-08T11:39:42;13.25;44.42
71128;SHT30;59249;59.736;30.568;2023-04-08T11:42:26;13.36;43.95
71128;SHT30;59249;59.736;30.568;2023-04-08T11:44:55;13.47;44.47
71128;SHT30;59249;59.736;30.568;2023-04-08T11:47:30;13.61;44.22
71128;SHT30;59249;59.736;30.568;2023-04-08T11:50:01;13.62;42.64
71128;SHT30;59249;59.736;30.568;2023-04-08T11:52:46;13.55;42.30
71128;SHT30;59249;59.736;30.568;2023-04-08T11:55:23;13.45;41.92
71128;SHT30;59249;59.736;30.568;2023-04-08T11:57:53;13.46;42.37
71128;SHT30;59249;59.736;30.568;2023-04-08T12:00:23;13.48;43.07
71128;SHT30;59249;59.736;30.568;2023-04-08T12:02:54;13.51;43.44
71128;SHT30;59249;59.736;30.568;2023-04-08T12:05:23;13.56;43.33
71128;SHT30;59249;59.736;30.568;2023-04-08T12:07:53;13.74;43.55
71128;SHT30;59249;59.736;30.568;2023-04-08T12:10:21;13.83;43.01
71128;SHT30;59249;59.736;30.568;2023-04-08T12:12:51;13.88;42.30
71128;SHT30;59249;59.736;30.568;2023-04-08T12:15:20;13.89;42.33
71128;SHT30;59249;59.736;30.568;2023-04-08T12:17:48;13.90;42.16
71128;SHT30;59249;59.736;30.568;2023-04-08T12:20:17;13.94;43.16
71128;SHT30;59249;59.736;30.568;2023-04-08T12:22:46;13.90;42.43
71128;SHT30;59249;59.736;30.568;2023-04-08T12:25:16;14.03;42.86
71128;SHT30;59249;59.736;30.568;2023-04-08T12:27:45;13.98;41.36
71128;SHT30;59249;59.736;30.568;2023-04-08T12:30:13;13.97;41.05
71128;SHT30;59249;59.736;30.568;2023-04-08T12:32:43;13.86;40.55
71128;SHT30;59249;59.736;30.568;2023-04-08T12:35:12;13.78;40.65
71128;SHT30;59249;59.736;30.568;2023-04-08T12:37:41;13.70;40.63
71128;SHT30;59249;59.736;30.568;2023-04-08T12:40:10;13.67;40.99
71128;SHT30;59249;59.736;30.568;2023-04-08T12:42:40;13.67;41.11
71128;SHT30;59249;59.736;30.568;2023-04-08T12:45:09;13.71;41.11
71128;SHT30;59249;59.736;30.568;2023-04-08T12:47:38;13.71;41.34
71128;SHT30;59249;59.736;30.568;2023-04-08T12:50:07;13.71;42.13
71128;SHT30;59249;59.736;30.568;2023-04-08T12:52:37;13.67;42.15
71128;SHT30;59249;59.736;30.568;2023-04-08T12:55:07;13.54;42.67
71128;SHT30;59249;59.736;30.568;2023-04-08T12:57:35;13.71;41.68
71128;SHT30;59249;59.736;30.568;2023-04-08T13:00:08;13.72;42.03
71128;SHT30;59249;59.736;30.568;2023-04-08T13:02:37;13.55;42.85
71128;SHT30;59249;59.736;30.568;2023-04-08T13:05:07;13.63;43.18
71128;SHT30;59249;59.736;30.568;2023-04-08T13:07:36;13.66;42.47
71128;SHT30;59249;59.736;30.568;2023-04-08T13:10:06;13.77;42.89
71128;SHT30;59249;59.736;30.568;2023-04-08T13:12:35;13.90;42.51
71128;SHT30;59249;59.736;30.568;2023-04-08T13:15:09;13.89;42.28
71128;SHT30;59249;59.736;30.568;2023-04-08T13:17:38;13.89;42.13
71128;SHT30;59249;59.736;30.568;2023-04-08T13:20:09;13.92;42.49
71128;SHT30;59249;59.736;30.568;2023-04-08T13:22:38;13.87;42.76
71128;SHT30;59249;59.736;30.568;2023-04-08T13:25:08;13.93;42.16
71128;SHT30;59249;59.736;30.568;2023-04-08T13:27:36;13.87;42.34
71128;SHT30;59249;59.736;30.568;2023-04-08T13:30:09;13.88;42.61
71128;SHT30;59249;59.736;30.568;2023-04-08T13:32:37;13.90;42.14
71128;SHT30;59249;59.736;30.568;2023-04-08T13:35:07;13.92;41.76
71128;SHT30;59249;59.736;30.568;2023-04-08T13:37:36;13.95;41.67
71128;SHT30;59249;59.736;30.568;2023-04-08T13:40:05;13.93;41.50
71128;SHT30;59249;59.736;30.568;2023-04-08T13:42:35;13.91;41.54
71128;SHT30;59249;59.736;30.568;2023-04-08T13:45:05;13.86;41.74
71128;SHT30;59249;59.736;30.568;2023-04-08T13:47:35;14.00;41.83
71128;SHT30;59249;59.736;30.568;2023-04-08T13:50:06;14.05;41.14
71128;SHT30;59249;59.736;30.568;2023-04-08T13:52:35;13.93;40.89
71128;SHT30;59249;59.736;30.568;2023-04-08T13:55:05;13.82;41.46
71128;SHT30;59249;59.736;30.568;2023-04-08T13:57:37;13.83;41.79
71128;SHT30;59249;59.736;30.568;2023-04-08T14:00:07;13.79;41.30
71128;SHT30;59249;59.736;30.568;2023-04-08T14:02:38;13.73;41.58
71128;SHT30;59249;59.736;30.568;2023-04-08T14:05:08;13.65;42.79
71128;SHT30;59249;59.736;30.568;2023-04-08T14:07:36;13.61;42.32
71128;SHT30;59249;59.736;30.568;2023-04-08T14:10:06;13.65;42.50
71128;SHT30;59249;59.736;30.568;2023-04-08T14:12:35;13.63;43.14
71128;SHT30;59249;59.736;30.568;2023-04-08T14:15:06;13.46;43.93
71128;SHT30;59249;59.736;30.568;2023-04-08T14:17:35;13.47;44.03
71128;SHT30;59249;59.736;30.568;2023-04-08T14:20:07;13.36;44.30
71128;SHT30;59249;59.736;30.568;2023-04-08T14:22:36;13.32;44.30
71128;SHT30;59249;59.736;30.568;2023-04-08T14:25:05;13.28;44.08
71128;SHT30;59249;59.736;30.568;2023-04-08T14:27:34;13.30;44.39
71128;SHT30;59249;59.736;30.568;2023-04-08T14:30:17;13.35;44.52
71128;SHT30;59249;59.736;30.568;2023-04-08T14:32:45;13.32;44.73
71128;SHT30;59249;59.736;30.568;2023-04-08T14:35:16;13.23;44.77
71128;SHT30;59249;59.736;30.568;2023-04-08T14:37:44;13.27;44.39
71128;SHT30;59249;59.736;30.568;2023-04-08T14:40:13;13.15;44.14
71128;SHT30;59249;59.736;30.568;2023-04-08T14:42:42;13.15;44.39
71128;SHT30;59249;59.736;30.568;2023-04-08T14:45:11;13.27;44.40
71128;SHT30;59249;59.736;30.568;2023-04-08T14:47:40;13.33;43.87
71128;SHT30;59249;59.736;30.568;2023-04-08T14:50:09;13.47;43.84
71128;SHT30;59249;59.736;30.568;2023-04-08T14:52:39;13.65;44.00
71128;SHT30;59249;59.736;30.568;2023-04-08T14:55:09;13.81;42.92
71128;SHT30;59249;59.736;30.568;2023-04-08T14:57:38;14.18;41.74
71128;SHT30;59249;59.736;30.568;2023-04-08T15:00:08;14.25;42.20
71128;SHT30;59249;59.736;30.568;2023-04-08T15:03:02;14.27;42.20
71128;SHT30;59249;59.736;30.568;2023-04-08T15:05:31;14.29;42.16
71128;SHT30;59249;59.736;30.568;2023-04-08T15:08:04;14.22;42.18
71128;SHT30;59249;59.736;30.568;2023-04-08T15:10:33;14.29;42.10
71128;SHT30;59249;59.736;30.568;2023-04-08T15:13:02;14.48;42.51
71128;SHT30;59249;59.736;30.568;2023-04-08T15:15:31;14.59;42.19
71128;SHT30;59249;59.736;30.568;2023-04-08T15:17:59;14.72;41.76
71128;SHT30;59249;59.736;30.568;2023-04-08T15:20:28;14.75;42.05
71128;SHT30;59249;59.736;30.568;2023-04-08T15:22:57;14.90;42.67
71128;SHT30;59249;59.736;30.568;2023-04-08T15:25:27;14.92;41.91
71128;SHT30;59249;59.736;30.568;2023-04-08T15:27:56;14.99;41.85
71128;SHT30;59249;59.736;30.568;2023-04-08T15:30:24;14.95;41.57
71128;SHT30;59249;59.736;30.568;2023-04-08T15:32:53;14.93;41.96
71128;SHT30;59249;59.736;30.568;2023-04-08T15:35:23;15.08;41.59
71128;SHT30;59249;59.736;30.568;2023-04-08T15:37:53;15.00;41.60
71128;SHT30;59249;59.736;30.568;2023-04-08T15:40:22;15.12;41.76
71128;SHT30;59249;59.736;30.568;2023-04-08T15:42:53;14.91;41.45
71128;SHT30;59249;59.736;30.568;2023-04-08T15:45:22;14.71;41.52
71128;SHT30;59249;59.736;30.568;2023-04-08T15:47:50;14.67;41.73